sensor_id;sensor_type;location;lat;lon;timestamp;pressure;altitude;pressure_sealevel;temperature;humidity
50636;BME280;36598;46.054;11.130;2023-04-30T00:00:39;99131.31;;;15.49;68.08
50636;BME280;36598;46.054;11.130;2023-04-30T00:03:04;99123.25;;;15.16;69.26
50636;BME280;36598;46.054;11.130;2023-04-30T00:05:30;99129.16;;;14.93;69.67
50636;BME280;36598;46.054;11.130;2023-04-30T00:07:55;99127.03;;;14.71;70.22
50636;BME280;36598;46.054;11.130;2023-04-30T00:10:21;99123.69;;;15.02;69.36
50636;BME280;36598;46.054;11.130;2023-04-30T00:12:46;99126.47;;;15.02;69.66
50636;BME280;36598;46.054;11.130;2023-04-30T00:15:11;99119.44;;;15.23;68.80
50636;BME280;36598;46.054;11.130;2023-04-30T00:17:36;99125.34;;;15.25;68.67
50636;BME280;36598;46.054;11.130;2023-04-30T00:20:02;99125.47;;;15.21;68.66
50636;BME280;36598;46.054;11.130;2023-04-30T00:22:27;99121.13;;;15.20;68.40
50636;BME280;36598;46.054;11.130;2023-04-30T00:24:52;99128.03;;;15.03;69.10
50636;BME280;36598;46.054;11.130;2023-04-30T00:27:18;99127.91;;;14.94;69.45
50636;BME280;36598;46.054;11.130;2023-04-30T00:29:43;99116.75;;;15.19;68.37
50636;BME280;36598;46.054;11.130;2023-04-30T00:32:08;99126.56;;;15.11;68.81
50636;BME280;36598;46.054;11.130;2023-04-30T00:34:33;99122.78;;;15.05;69.35
50636;BME280;36598;46.054;11.130;2023-04-30T00:36:59;99128.38;;;15.05;69.63
50636;BME280;36598;46.054;11.130;2023-04-30T00:39:24;99120.69;;;15.09;69.37
50636;BME280;36598;46.054;11.130;2023-04-30T00:41:49;99126.13;;;15.25;68.78
50636;BME280;36598;46.054;11.130;2023-04-30T00:44:15;99131.72;;;15.00;69.88
50636;BME280;36598;46.054;11.130;2023-04-30T00:46:40;99133.50;;;14.94;70.37
50636;BME280;36598;46.054;11.130;2023-04-30T00:49:05;99133.06;;;15.08;69.75
50636;BME280;36598;46.054;11.130;2023-04-30T00:51:31;99118.66;;;15.10;69.51
50636;BME280;36598;46.054;11.130;2023-04-30T00:53:57;99123.13;;;14.94;69.91
50636;BME280;36598;46.054;11.130;2023-04-30T00:56:24;99123.34;;;14.74;70.55
50636;BME280;36598;46.054;11.130;2023-04-30T00:58:50;99118.88;;;14.64;71.03
50636;BME280;36598;46.054;11.130;2023-04-30T01:01:18;99114.44;;;14.92;70.26
50636;BME280;36598;46.054;11.130;2023-04-30T01:03:43;99117.91;;;14.84;70.30
50636;BME280;36598;46.054;11.130;2023-04-30T01:06:09;99112.66;;;14.86;70.51
50636;BME280;36598;46.054;11.130;2023-04-30T01:08:35;99116.00;;;14.81;70.58
50636;BME280;36598;46.054;11.130;2023-04-30T01:11:25;99107.31;;;14.91;70.17
50636;BME280;36598;46.054;11.130;2023-04-30T01:16:34;99115.78;;;14.88;70.14
50636;BME280;36598;46.054;11.130;2023-04-30T01:19:01;99119.34;;;14.75;70.41
50636;BME280;36598;46.054;11.130;2023-04-30T01:21:29;99120.09;;;14.63;70.57
50636;BME280;36598;46.054;11.130;2023-04-30T01:28:51;99121.00;;;14.60;71.20
50636;BME280;36598;46.054;11.130;2023-04-30T01:31:17;99122.13;;;14.75;70.51
50636;BME280;36598;46.054;11.130;2023-04-30T01:33:43;99127.91;;;14.14;72.28
50636;BME280;36598;46.054;11.130;2023-04-30T01:46:40;99119.22;;;14.66;71.19
50636;BME280;36598;46.054;11.130;2023-04-30T01:51:41;99121.56;;;14.26;72.46
50636;BME280;36598;46.054;11.130;2023-04-30T01:54:19;99124.09;;;14.08;72.60
50636;BME280;36598;46.054;11.130;2023-04-30T01:56:50;99123.06;;;14.31;72.26
50636;BME280;36598;46.054;11.130;2023-04-30T01:59:17;99125.34;;;14.48;71.45
50636;BME280;36598;46.054;11.130;2023-04-30T02:01:43;99126.03;;;14.65;70.58
50636;BME280;36598;46.054;11.130;2023-04-30T02:04:08;99116.72;;;14.43;71.10
50636;BME280;36598;46.054;11.130;2023-04-30T02:06:34;99130.50;;;13.92;72.19
50636;BME280;36598;46.054;11.130;2023-04-30T02:08:59;99125.44;;;13.87;73.14
50636;BME280;36598;46.054;11.130;2023-04-30T02:11:29;99126.00;;;13.82;73.61
50636;BME280;36598;46.054;11.130;2023-04-30T02:13:54;99122.47;;;13.94;72.60
50636;BME280;36598;46.054;11.130;2023-04-30T02:16:19;99120.53;;;14.07;71.89
50636;BME280;36598;46.054;11.130;2023-04-30T02:18:45;99131.59;;;14.23;70.50
50636;BME280;36598;46.054;11.130;2023-04-30T02:21:10;99124.50;;;13.93;71.70
50636;BME280;36598;46.054;11.130;2023-04-30T02:23:35;99130.03;;;13.64;72.22
50636;BME280;36598;46.054;11.130;2023-04-30T02:26:01;99129.38;;;13.89;71.28
50636;BME280;36598;46.054;11.130;2023-04-30T02:28:27;99132.00;;;14.09;70.81
50636;BME280;36598;46.054;11.130;2023-04-30T02:30:52;99135.69;;;14.19;70.03
50636;BME280;36598;46.054;11.130;2023-04-30T02:33:17;99130.72;;;14.26;69.27
50636;BME280;36598;46.054;11.130;2023-04-30T02:35:43;99133.78;;;14.16;69.26
50636;BME280;36598;46.054;11.130;2023-04-30T02:38:08;99139.06;;;14.26;69.17
50636;BME280;36598;46.054;11.130;2023-04-30T02:40:33;99132.97;;;14.32;69.11
50636;BME280;36598;46.054;11.130;2023-04-30T02:42:59;99134.19;;;14.31;69.07
50636;BME280;36598;46.054;11.130;2023-04-30T02:45:25;99136.84;;;14.34;68.88
50636;BME280;36598;46.054;11.130;2023-04-30T02:47:50;99136.88;;;14.05;70.16
50636;BME280;36598;46.054;11.130;2023-04-30T02:50:16;99128.31;;;13.83;69.85
50636;BME280;36598;46.054;11.130;2023-04-30T02:52:42;99132.81;;;13.48;71.88
50636;BME280;36598;46.054;11.130;2023-04-30T02:55:07;99136.44;;;13.61;71.70
50636;BME280;36598;46.054;11.130;2023-04-30T02:57:33;99137.81;;;13.86;70.84
50636;BME280;36598;46.054;11.130;2023-04-30T02:59:58;99136.56;;;13.87;71.38
50636;BME280;36598;46.054;11.130;2023-04-30T03:02:23;99135.13;;;13.82;70.85
50636;BME280;36598;46.054;11.130;2023-04-30T03:04:48;99144.41;;;13.92;70.92
50636;BME280;36598;46.054;11.130;2023-04-30T03:07:14;99141.06;;;13.68;70.74
50636;BME280;36598;46.054;11.130;2023-04-30T03:09:39;99145.69;;;13.87;69.56
50636;BME280;36598;46.054;11.130;2023-04-30T03:12:05;99146.22;;;13.82;69.81
50636;BME280;36598;46.054;11.130;2023-04-30T03:14:30;99142.53;;;14.01;69.22
50636;BME280;36598;46.054;11.130;2023-04-30T03:16:55;99143.91;;;14.10;68.76
50636;BME280;36598;46.054;11.130;2023-04-30T03:19:20;99147.03;;;14.12;68.63
50636;BME280;36598;46.054;11.130;2023-04-30T03:21:49;99151.53;;;13.93;68.57
50636;BME280;36598;46.054;11.130;2023-04-30T03:24:14;99155.59;;;14.17;68.13
50636;BME280;36598;46.054;11.130;2023-04-30T03:26:40;99147.66;;;14.03;68.72
50636;BME280;36598;46.054;11.130;2023-04-30T03:29:05;99148.38;;;14.20;67.89
50636;BME280;36598;46.054;11.130;2023-04-30T03:31:30;99144.78;;;14.07;67.83
50636;BME280;36598;46.054;11.130;2023-04-30T03:33:56;99147.91;;;14.09;67.76
50636;BME280;36598;46.054;11.130;2023-04-30T03:36:21;99145.38;;;14.14;67.96
50636;BME280;36598;46.054;11.130;2023-04-30T03:38:46;99154.09;;;14.00;68.38
50636;BME280;36598;46.054;11.130;2023-04-30T03:41:12;99145.75;;;14.00;68.15
50636;BME280;36598;46.054;11.130;2023-04-30T03:43:37;99150.97;;;13.98;68.62
50636;BME280;36598;46.054;11.130;2023-04-30T03:46:02;99139.81;;;14.14;68.36
50636;BME280;36598;46.054;11.130;2023-04-30T03:48:28;99143.88;;;13.97;68.55
50636;BME280;36598;46.054;11.130;2023-04-30T03:50:53;99138.88;;;14.04;68.66
50636;BME280;36598;46.054;11.130;2023-04-30T03:53:18;99140.88;;;13.75;69.84
50636;BME280;36598;46.054;11.130;2023-04-30T03:55:43;99141.09;;;13.97;68.75
50636;BME280;36598;46.054;11.130;2023-04-30T03:58:09;99136.22;;;14.01;68.42
50636;BME280;36598;46.054;11.130;2023-04-30T04:03:10;99136.88;;;14.05;68.17
50636;BME280;36598;46.054;11.130;2023-04-30T04:05:35;99140.63;;;13.98;68.55
50636;BME280;36598;46.054;11.130;2023-04-30T04:08:01;99136.09;;;14.04;68.27
50636;BME280;36598;46.054;11.130;2023-04-30T04:10:26;99133.94;;;13.96;68.69
50636;BME280;36598;46.054;11.130;2023-04-30T04:12:51;99134.44;;;14.07;68.09
50636;BME280;36598;46.054;11.130;2023-04-30T04:15:17;99131.09;;;14.12;67.87
50636;BME280;36598;46.054;11.130;2023-04-30T04:17:42;99133.88;;;13.83;68.83
50636;BME280;36598;46.054;11.130;2023-04-30T04:20:07;99133.78;;;13.87;68.88
50636;BME280;36598;46.054;11.130;2023-04-30T04:22:33;99145.06;;;13.96;69.26
50636;BME280;36598;46.054;11.130;2023-04-30T04:24:58;99147.34;;;14.01;68.98
50636;BME280;36598;46.054;11.130;2023-04-30T04:27:23;99148.03;;;14.05;68.96
50636;BME280;36598;46.054;11.130;2023-04-30T04:29:49;99154.59;;;14.11;68.31
50636;BME280;36598;46.054;11.130;2023-04-30T04:32:15;99155.88;;;14.23;68.41
50636;BME280;36598;46.054;11.130;2023-04-30T04:34:40;99154.34;;;14.35;67.90
50636;BME280;36598;46.054;11.130;2023-04-30T04:37:06;99158.19;;;14.24;68.12
50636;BME280;36598;46.054;11.130;2023-04-30T04:39:32;99166.25;;;14.35;67.76
50636;BME280;36598;46.054;11.130;2023-04-30T04:41:57;99165.34;;;14.38;67.71
50636;BME280;36598;46.054;11.130;2023-04-30T04:44:23;99170.97;;;14.51;68.87
50636;BME280;36598;46.054;11.130;2023-04-30T04:46:48;99170.88;;;14.55;69.15
50636;BME280;36598;46.054;11.130;2023-04-30T04:49:13;99173.66;;;14.55;69.79
50636;BME280;36598;46.054;11.130;2023-04-30T04:51:39;99174.66;;;14.48;70.30
50636;BME280;36598;46.054;11.130;2023-04-30T04:54:05;99177.81;;;14.63;69.77
50636;BME280;36598;46.054;11.130;2023-04-30T04:56:30;99175.25;;;14.68;69.68
50636;BME280;36598;46.054;11.130;2023-04-30T04:58:57;99180.06;;;14.81;69.26
50636;BME280;36598;46.054;11.130;2023-04-30T05:01:22;99187.09;;;14.85;68.86
50636;BME280;36598;46.054;11.130;2023-04-30T05:03:47;99181.09;;;14.87;68.72
50636;BME280;36598;46.054;11.130;2023-04-30T05:06:13;99184.53;;;14.91;68.63
50636;BME280;36598;46.054;11.130;2023-04-30T05:08:38;99184.66;;;15.00;67.98
50636;BME280;36598;46.054;11.130;2023-04-30T05:11:04;99187.34;;;15.16;67.50
50636;BME280;36598;46.054;11.130;2023-04-30T05:13:29;99191.56;;;15.46;66.22
50636;BME280;36598;46.054;11.130;2023-04-30T05:15:55;99191.47;;;15.12;67.05
50636;BME280;36598;46.054;11.130;2023-04-30T05:18:20;99202.38;;;15.06;67.02
50636;BME280;36598;46.054;11.130;2023-04-30T05:20:45;99191.56;;;15.46;65.80
50636;BME280;36598;46.054;11.130;2023-04-30T05:23:11;99204.84;;;15.30;66.33
50636;BME280;36598;46.054;11.130;2023-04-30T05:25:36;99193.97;;;15.83;64.51
50636;BME280;36598;46.054;11.130;2023-04-30T05:28:02;99194.63;;;15.87;64.48
50636;BME280;36598;46.054;11.130;2023-04-30T05:30:27;99198.78;;;15.69;64.65
50636;BME280;36598;46.054;11.130;2023-04-30T05:32:53;99187.78;;;15.88;64.35
50636;BME280;36598;46.054;11.130;2023-04-30T05:35:18;99205.13;;;15.83;64.65
50636;BME280;36598;46.054;11.130;2023-04-30T05:37:44;99192.59;;;15.87;64.86
50636;BME280;36598;46.054;11.130;2023-04-30T05:40:09;99208.72;;;16.05;64.56
50636;BME280;36598;46.054;11.130;2023-04-30T05:42:35;99203.38;;;15.76;65.29
50636;BME280;36598;46.054;11.130;2023-04-30T05:45:02;99205.03;;;15.73;65.33
50636;BME280;36598;46.054;11.130;2023-04-30T05:47:27;99205.22;;;15.79;65.46
50636;BME280;36598;46.054;11.130;2023-04-30T05:49:53;99212.59;;;15.86;64.74
50636;BME280;36598;46.054;11.130;2023-04-30T05:52:18;99215.50;;;16.17;63.87
50636;BME280;36598;46.054;11.130;2023-04-30T05:54:43;99211.97;;;16.03;63.60
50636;BME280;36598;46.054;11.130;2023-04-30T05:57:09;99217.09;;;16.05;63.81
50636;BME280;36598;46.054;11.130;2023-04-30T05:59:34;99215.34;;;15.98;63.78
50636;BME280;36598;46.054;11.130;2023-04-30T06:01:59;99210.03;;;15.78;64.59
50636;BME280;36598;46.054;11.130;2023-04-30T06:04:25;99213.13;;;15.93;64.63
50636;BME280;36598;46.054;11.130;2023-04-30T06:06:50;99205.69;;;16.12;64.12
50636;BME280;36598;46.054;11.130;2023-04-30T06:09:15;99206.94;;;16.11;64.08
50636;BME280;36598;46.054;11.130;2023-04-30T06:11:41;99209.66;;;16.02;64.21
50636;BME280;36598;46.054;11.130;2023-04-30T06:14:06;99211.44;;;15.96;64.64
50636;BME280;36598;46.054;11.130;2023-04-30T06:16:31;99207.38;;;16.10;64.62
50636;BME280;36598;46.054;11.130;2023-04-30T06:18:57;99216.19;;;16.08;63.71
50636;BME280;36598;46.054;11.130;2023-04-30T06:21:22;99207.59;;;16.15;64.03
50636;BME280;36598;46.054;11.130;2023-04-30T06:23:50;99215.69;;;16.22;64.20
50636;BME280;36598;46.054;11.130;2023-04-30T06:26:16;99220.13;;;16.11;64.73
50636;BME280;36598;46.054;11.130;2023-04-30T06:28:41;99215.34;;;15.98;65.16
50636;BME280;36598;46.054;11.130;2023-04-30T06:31:07;99216.28;;;15.83;65.86
50636;BME280;36598;46.054;11.130;2023-04-30T06:33:32;99215.03;;;15.84;66.24
50636;BME280;36598;46.054;11.130;2023-04-30T06:35:57;99226.69;;;15.69;66.65
50636;BME280;36598;46.054;11.130;2023-04-30T06:38:23;99221.16;;;15.91;65.59
50636;BME280;36598;46.054;11.130;2023-04-30T06:40:48;99224.53;;;15.86;65.76
50636;BME280;36598;46.054;11.130;2023-04-30T06:43:13;99219.81;;;15.96;65.63
50636;BME280;36598;46.054;11.130;2023-04-30T06:45:39;99211.44;;;15.96;64.96
50636;BME280;36598;46.054;11.130;2023-04-30T06:48:04;99216.34;;;15.92;65.18
50636;BME280;36598;46.054;11.130;2023-04-30T06:50:29;99218.88;;;16.12;64.40
50636;BME280;36598;46.054;11.130;2023-04-30T06:52:55;99221.47;;;16.06;64.32
50636;BME280;36598;46.054;11.130;2023-04-30T06:55:20;99221.09;;;16.39;63.13
50636;BME280;36598;46.054;11.130;2023-04-30T06:57:45;99220.78;;;16.37;63.21
50636;BME280;36598;46.054;11.130;2023-04-30T07:00:11;99221.56;;;16.59;62.81
50636;BME280;36598;46.054;11.130;2023-04-30T07:02:39;99222.53;;;16.65;62.27
50636;BME280;36598;46.054;11.130;2023-04-30T07:05:04;99215.50;;;16.61;62.67
50636;BME280;36598;46.054;11.130;2023-04-30T07:07:29;99223.47;;;16.84;62.07
50636;BME280;36598;46.054;11.130;2023-04-30T07:09:55;99220.81;;;17.52;59.90
50636;BME280;36598;46.054;11.130;2023-04-30T07:12:20;99219.22;;;17.91;58.82
50636;BME280;36598;46.054;11.130;2023-04-30T07:14:46;99218.31;;;18.59;56.77
50636;BME280;36598;46.054;11.130;2023-04-30T07:17:11;99220.31;;;18.58;56.85
50636;BME280;36598;46.054;11.130;2023-04-30T07:19:37;99216.25;;;18.87;55.65
50636;BME280;36598;46.054;11.130;2023-04-30T07:22:02;99217.03;;;18.69;55.71
50636;BME280;36598;46.054;11.130;2023-04-30T07:24:27;99220.03;;;19.17;54.59
50636;BME280;36598;46.054;11.130;2023-04-30T07:26:53;99213.41;;;19.38;54.00
50636;BME280;36598;46.054;11.130;2023-04-30T07:29:18;99213.63;;;20.31;51.27
50636;BME280;36598;46.054;11.130;2023-04-30T07:31:44;99221.38;;;20.36;50.24
50636;BME280;36598;46.054;11.130;2023-04-30T07:34:09;99222.06;;;19.83;51.67
50636;BME280;36598;46.054;11.130;2023-04-30T07:36:34;99221.25;;;19.67;51.50
50636;BME280;36598;46.054;11.130;2023-04-30T07:39:00;99218.41;;;19.34;52.56
50636;BME280;36598;46.054;11.130;2023-04-30T07:41:25;99224.47;;;18.99;53.03
50636;BME280;36598;46.054;11.130;2023-04-30T07:43:50;99222.81;;;18.74;54.26
50636;BME280;36598;46.054;11.130;2023-04-30T07:46:16;99215.94;;;18.75;54.12
50636;BME280;36598;46.054;11.130;2023-04-30T07:48:41;99217.34;;;18.62;54.60
50636;BME280;36598;46.054;11.130;2023-04-30T07:51:06;99216.13;;;18.72;54.36
50636;BME280;36598;46.054;11.130;2023-04-30T07:53:32;99219.69;;;18.54;54.40
50636;BME280;36598;46.054;11.130;2023-04-30T07:55:57;99222.16;;;18.89;53.52
50636;BME280;36598;46.054;11.130;2023-04-30T07:58:22;99210.53;;;18.72;53.59
50636;BME280;36598;46.054;11.130;2023-04-30T08:00:47;99217.00;;;19.39;52.41
50636;BME280;36598;46.054;11.130;2023-04-30T08:03:13;99221.50;;;19.03;52.93
50636;BME280;36598;46.054;11.130;2023-04-30T08:05:38;99221.38;;;19.97;50.44
50636;BME280;36598;46.054;11.130;2023-04-30T08:08:05;99218.66;;;20.26;49.40
50636;BME280;36598;46.054;11.130;2023-04-30T08:10:30;99210.06;;;20.45;48.73
50636;BME280;36598;46.054;11.130;2023-04-30T08:12:56;99218.69;;;20.41;48.52
50636;BME280;36598;46.054;11.130;2023-04-30T08:15:21;99217.47;;;21.66;45.61
50636;BME280;36598;46.054;11.130;2023-04-30T08:17:49;99211.38;;;23.02;43.10
50636;BME280;36598;46.054;11.130;2023-04-30T08:20:15;99209.88;;;22.80;42.37
50636;BME280;36598;46.054;11.130;2023-04-30T08:22:41;99200.34;;;23.04;42.26
50636;BME280;36598;46.054;11.130;2023-04-30T08:25:06;99204.63;;;22.67;42.59
50636;BME280;36598;46.054;11.130;2023-04-30T08:27:31;99209.84;;;22.28;43.10
50636;BME280;36598;46.054;11.130;2023-04-30T08:29:57;99210.34;;;22.27;43.69
50636;BME280;36598;46.054;11.130;2023-04-30T08:32:22;99202.31;;;22.19;43.74
50636;BME280;36598;46.054;11.130;2023-04-30T08:34:47;99203.63;;;21.63;44.82
50636;BME280;36598;46.054;11.130;2023-04-30T08:37:13;99200.41;;;22.31;44.12
50636;BME280;36598;46.054;11.130;2023-04-30T08:39:38;99191.09;;;22.05;44.57
50636;BME280;36598;46.054;11.130;2023-04-30T08:42:04;99199.56;;;21.49;45.72
50636;BME280;36598;46.054;11.130;2023-04-30T08:44:32;99199.94;;;21.57;45.00
50636;BME280;36598;46.054;11.130;2023-04-30T08:46:59;99199.63;;;21.69;44.66
50636;BME280;36598;46.054;11.130;2023-04-30T08:49:26;99193.91;;;22.05;44.70
50636;BME280;36598;46.054;11.130;2023-04-30T08:51:52;99196.81;;;22.31;44.23
50636;BME280;36598;46.054;11.130;2023-04-30T08:54:17;99192.75;;;22.58;43.27
50636;BME280;36598;46.054;11.130;2023-04-30T08:56:46;99186.19;;;22.92;42.70
50636;BME280;36598;46.054;11.130;2023-04-30T08:59:11;99185.66;;;22.68;42.27
50636;BME280;36598;46.054;11.130;2023-04-30T09:01:37;99186.75;;;22.76;41.67
50636;BME280;36598;46.054;11.130;2023-04-30T09:04:02;99186.94;;;22.93;41.54
50636;BME280;36598;46.054;11.130;2023-04-30T09:06:28;99180.44;;;22.87;40.84
50636;BME280;36598;46.054;11.130;2023-04-30T09:08:53;99189.06;;;23.72;39.17
50636;BME280;36598;46.054;11.130;2023-04-30T09:11:20;99189.34;;;23.80;39.83
50636;BME280;36598;46.054;11.130;2023-04-30T09:13:51;99184.28;;;23.53;39.92
50636;BME280;36598;46.054;11.130;2023-04-30T09:16:17;99182.44;;;22.29;41.86
50636;BME280;36598;46.054;11.130;2023-04-30T09:18:43;99174.28;;;23.52;40.36
50636;BME280;36598;46.054;11.130;2023-04-30T09:21:08;99177.34;;;23.48;39.97
50636;BME280;36598;46.054;11.130;2023-04-30T09:23:33;99177.22;;;22.99;40.77
50636;BME280;36598;46.054;11.130;2023-04-30T09:25:58;99175.34;;;23.60;40.27
50636;BME280;36598;46.054;11.130;2023-04-30T09:28:24;99165.16;;;24.33;39.23
50636;BME280;36598;46.054;11.130;2023-04-30T09:30:52;99159.44;;;24.22;39.36
50636;BME280;36598;46.054;11.130;2023-04-30T09:33:18;99157.13;;;22.34;41.71
50636;BME280;36598;46.054;11.130;2023-04-30T09:35:44;99159.78;;;23.33;40.64
50636;BME280;36598;46.054;11.130;2023-04-30T09:38:25;99158.91;;;23.58;40.31
50636;BME280;36598;46.054;11.130;2023-04-30T09:40:51;99158.13;;;23.52;40.89
50636;BME280;36598;46.054;11.130;2023-04-30T09:43:16;99148.47;;;23.76;40.41
50636;BME280;36598;46.054;11.130;2023-04-30T09:45:45;99147.69;;;23.69;40.48
50636;BME280;36598;46.054;11.130;2023-04-30T09:48:16;99146.84;;;23.58;40.65
50636;BME280;36598;46.054;11.130;2023-04-30T09:50:41;99147.53;;;22.78;40.88
50636;BME280;36598;46.054;11.130;2023-04-30T09:53:07;99140.38;;;22.51;41.74
50636;BME280;36598;46.054;11.130;2023-04-30T09:55:36;99141.09;;;23.41;39.89
50636;BME280;36598;46.054;11.130;2023-04-30T09:58:05;99143.59;;;23.28;41.05
50636;BME280;36598;46.054;11.130;2023-04-30T10:00:34;99136.66;;;22.91;41.21
50636;BME280;36598;46.054;11.130;2023-04-30T10:03:04;99137.78;;;22.21;41.72
50636;BME280;36598;46.054;11.130;2023-04-30T10:05:30;99134.78;;;21.64;42.46
50636;BME280;36598;46.054;11.130;2023-04-30T10:07:57;99135.34;;;21.68;42.90
50636;BME280;36598;46.054;11.130;2023-04-30T10:10:22;99136.16;;;21.18;43.62
50636;BME280;36598;46.054;11.130;2023-04-30T10:12:50;99133.19;;;21.07;43.91
50636;BME280;36598;46.054;11.130;2023-04-30T10:15:24;99129.84;;;21.23;43.87
50636;BME280;36598;46.054;11.130;2023-04-30T10:17:55;99132.56;;;21.18;44.31
50636;BME280;36598;46.054;11.130;2023-04-30T10:20:22;99123.06;;;20.50;47.39
50636;BME280;36598;46.054;11.130;2023-04-30T10:22:50;99119.63;;;20.17;48.61
50636;BME280;36598;46.054;11.130;2023-04-30T10:25:16;99126.31;;;19.57;50.44
50636;BME280;36598;46.054;11.130;2023-04-30T10:27:42;99128.63;;;19.34;50.92
50636;BME280;36598;46.054;11.130;2023-04-30T10:30:08;99133.50;;;19.58;50.33
50636;BME280;36598;46.054;11.130;2023-04-30T10:35:20;99109.50;;;19.81;49.99
50636;BME280;36598;46.054;11.130;2023-04-30T10:40:14;99109.72;;;19.92;50.16
50636;BME280;36598;46.054;11.130;2023-04-30T10:42:49;99110.03;;;20.09;49.52
50636;BME280;36598;46.054;11.130;2023-04-30T10:45:17;99109.38;;;19.75;49.85
50636;BME280;36598;46.054;11.130;2023-04-30T10:47:44;99101.28;;;19.92;50.19
50636;BME280;36598;46.054;11.130;2023-04-30T10:50:10;99098.06;;;19.84;50.08
50636;BME280;36598;46.054;11.130;2023-04-30T10:52:37;99101.03;;;19.66;50.83
50636;BME280;36598;46.054;11.130;2023-04-30T10:55:06;99098.50;;;19.92;50.06
50636;BME280;36598;46.054;11.130;2023-04-30T10:57:39;99077.50;;;20.61;48.44
50636;BME280;36598;46.054;11.130;2023-04-30T11:02:40;99082.47;;;21.78;45.60
50636;BME280;36598;46.054;11.130;2023-04-30T11:07:32;99064.28;;;22.25;45.08
50636;BME280;36598;46.054;11.130;2023-04-30T11:09:59;99081.41;;;21.34;45.88
50636;BME280;36598;46.054;11.130;2023-04-30T11:12:25;99069.47;;;21.04;47.16
50636;BME280;36598;46.054;11.130;2023-04-30T11:15:06;99062.81;;;22.09;45.45
50636;BME280;36598;46.054;11.130;2023-04-30T11:17:36;99060.25;;;21.39;46.71
50636;BME280;36598;46.054;11.130;2023-04-30T11:20:03;99048.28;;;22.42;45.23
50636;BME280;36598;46.054;11.130;2023-04-30T11:22:29;99057.41;;;22.95;44.17
50636;BME280;36598;46.054;11.130;2023-04-30T11:29:50;99042.63;;;23.11;37.70
50636;BME280;36598;46.054;11.130;2023-04-30T11:32:22;99038.06;;;22.82;37.30
50636;BME280;36598;46.054;11.130;2023-04-30T11:34:48;99029.44;;;23.40;36.55
50636;BME280;36598;46.054;11.130;2023-04-30T11:37:28;99037.53;;;22.78;36.64
50636;BME280;36598;46.054;11.130;2023-04-30T11:39:54;99034.97;;;22.74;37.01
50636;BME280;36598;46.054;11.130;2023-04-30T11:42:20;99035.50;;;22.47;36.52
50636;BME280;36598;46.054;11.130;2023-04-30T11:44:45;99028.97;;;22.61;36.41
50636;BME280;36598;46.054;11.130;2023-04-30T11:47:14;99033.91;;;22.72;35.41
50636;BME280;36598;46.054;11.130;2023-04-30T11:49:39;99026.72;;;22.39;36.11
50636;BME280;36598;46.054;11.130;2023-04-30T11:52:05;99042.91;;;22.76;35.82
50636;BME280;36598;46.054;11.130;2023-04-30T11:54:32;99034.25;;;22.16;36.67
50636;BME280;36598;46.054;11.130;2023-04-30T11:56:59;99018.03;;;22.37;36.80
50636;BME280;36598;46.054;11.130;2023-04-30T11:59:28;99030.72;;;22.53;36.42
50636;BME280;36598;46.054;11.130;2023-04-30T12:01:53;99029.00;;;22.09;37.20
50636;BME280;36598;46.054;11.130;2023-04-30T12:04:19;99031.66;;;22.44;36.96
50636;BME280;36598;46.054;11.130;2023-04-30T12:06:44;99029.09;;;22.46;37.12
50636;BME280;36598;46.054;11.130;2023-04-30T12:09:10;99024.88;;;22.99;35.82
50636;BME280;36598;46.054;11.130;2023-04-30T12:11:36;99014.78;;;22.50;36.07
50636;BME280;36598;46.054;11.130;2023-04-30T12:14:02;99021.66;;;22.81;35.86
50636;BME280;36598;46.054;11.130;2023-04-30T12:16:37;99009.78;;;22.34;36.74
50636;BME280;36598;46.054;11.130;2023-04-30T12:19:03;99020.47;;;22.56;34.35
50636;BME280;36598;46.054;11.130;2023-04-30T12:21:28;99023.09;;;22.65;35.44
50636;BME280;36598;46.054;11.130;2023-04-30T12:23:54;99007.00;;;22.39;35.51
50636;BME280;36598;46.054;11.130;2023-04-30T12:26:19;99014.69;;;22.70;35.22
50636;BME280;36598;46.054;11.130;2023-04-30T12:28:48;99010.38;;;22.81;34.94
50636;BME280;36598;46.054;11.130;2023-04-30T12:31:15;99008.75;;;23.06;34.81
50636;BME280;36598;46.054;11.130;2023-04-30T12:33:41;99013.72;;;22.79;33.76
50636;BME280;36598;46.054;11.130;2023-04-30T12:36:09;98998.44;;;22.60;33.90
50636;BME280;36598;46.054;11.130;2023-04-30T12:38:35;99011.56;;;23.06;33.02
50636;BME280;36598;46.054;11.130;2023-04-30T12:41:03;99004.94;;;22.71;32.95
50636;BME280;36598;46.054;11.130;2023-04-30T12:43:28;99002.91;;;22.78;33.28
50636;BME280;36598;46.054;11.130;2023-04-30T12:45:54;98991.63;;;22.78;33.60
50636;BME280;36598;46.054;11.130;2023-04-30T12:48:23;98993.88;;;23.05;33.11
50636;BME280;36598;46.054;11.130;2023-04-30T12:53:17;98972.50;;;22.50;33.97
50636;BME280;36598;46.054;11.130;2023-04-30T12:55:42;98972.78;;;22.95;33.50
50636;BME280;36598;46.054;11.130;2023-04-30T12:58:12;98965.16;;;23.12;33.21
50636;BME280;36598;46.054;11.130;2023-04-30T13:03:09;98968.22;;;23.68;32.99
50636;BME280;36598;46.054;11.130;2023-04-30T13:05:34;98968.06;;;23.29;33.04
50636;BME280;36598;46.054;11.130;2023-04-30T13:08:00;98949.03;;;23.18;33.30
50636;BME280;36598;46.054;11.130;2023-04-30T13:10:26;98965.50;;;23.26;33.30
50636;BME280;36598;46.054;11.130;2023-04-30T13:12:52;98959.78;;;23.14;33.85
50636;BME280;36598;46.054;11.130;2023-04-30T13:15:17;98952.31;;;23.82;33.38
50636;BME280;36598;46.054;11.130;2023-04-30T13:17:43;98946.66;;;23.82;33.24
50636;BME280;36598;46.054;11.130;2023-04-30T13:20:17;98946.91;;;23.84;33.50
50636;BME280;36598;46.054;11.130;2023-04-30T13:22:43;98957.41;;;22.96;34.28
50636;BME280;36598;46.054;11.130;2023-04-30T13:25:08;98927.28;;;23.36;33.46
50636;BME280;36598;46.054;11.130;2023-04-30T13:27:33;98954.31;;;22.94;33.67